Time;durP1;ratioP1;P1;durP2;ratioP2;P2;SDS_P1;SDS_P2;PMS_P1;PMS_P2;Temp;Humidity;BMP_temperature;BMP_pressure;BME280_temperature;BME280_humidity;BME280_pressure;Samples;Min_cycle;Max_cycle;Signal;HPM_P1;HPM_P2
2023/05/05 00:00:19;;;;;;;26.10;11.50;;;;;;;13.52;78.80;101125.25;5074308;28;20036;-85
2023/05/05 00:02:45;;;;;;;23.65;11.88;;;;;;;13.45;78.51;101124.97;5073838;28;20081;-83
2023/05/05 00:05:11;;;;;;;24.55;13.65;;;;;;;13.37;78.55;101123.88;5073222;28;20028;-86
2023/05/05 00:07:36;;;;;;;30.40;11.85;;;;;;;13.25;78.38;101097.91;5070285;28;20043;-83
2023/05/05 00:10:02;;;;;;;29.88;12.10;;;;;;;13.17;79.13;101092.31;5071854;28;20063;-84
2023/05/05 00:12:27;;;;;;;31.77;13.80;;;;;;;13.16;78.90;101077.06;5072496;28;20028;-85
2023/05/05 00:14:53;;;;;;;28.60;13.40;;;;;;;13.13;79.10;101086.31;5070082;28;20798;-84
2023/05/05 00:17:18;;;;;;;31.63;12.68;;;;;;;13.05;79.23;101062.63;5052833;28;20055;-83
2023/05/05 00:19:44;;;;;;;32.22;12.10;;;;;;;13.19;79.32;101099.28;5052824;28;20033;-86
2023/05/05 00:22:09;;;;;;;39.90;13.02;;;;;;;13.05;79.41;101092.34;5053157;28;20035;-83
2023/05/05 00:24:35;;;;;;;26.33;12.38;;;;;;;13.19;79.57;101111.94;5053526;28;20033;-83
2023/05/05 00:27:01;;;;;;;26.40;12.25;;;;;;;13.05;79.52;101089.63;5053445;28;20033;-82
2023/05/05 00:29:26;;;;;;;29.10;12.80;;;;;;;13.14;79.72;101108.78;5053513;28;20472;-84
2023/05/05 00:31:52;;;;;;;34.38;14.00;;;;;;;13.07;79.75;101106.56;5053803;28;20085;-83
2023/05/05 00:34:17;;;;;;;38.33;14.27;;;;;;;13.06;79.68;101102.13;5053403;28;20333;-83
2023/05/05 00:36:43;;;;;;;32.85;13.73;;;;;;;13.11;80.12;101107.19;5055536;28;20041;-83
2023/05/05 00:39:08;;;;;;;31.50;13.27;;;;;;;13.18;80.01;101121.03;5062228;28;20024;-82
2023/05/05 00:41:34;;;;;;;25.83;12.20;;;;;;;13.16;79.76;101115.75;5060815;28;20028;-83
2023/05/05 00:43:59;;;;;;;24.65;12.15;;;;;;;13.13;79.78;101098.94;5051234;28;20814;-83
2023/05/05 00:46:28;;;;;;;20.27;12.23;;;;;;;13.12;79.35;101094.56;5053291;28;20068;-84
2023/05/05 00:48:54;;;;;;;25.08;11.52;;;;;;;13.06;79.12;101094.03;5053337;28;20040;-84
2023/05/05 00:51:21;;;;;;;25.60;12.38;;;;;;;13.20;79.29;101119.06;5052986;28;20052;-81
2023/05/05 00:53:47;;;;;;;29.15;13.00;;;;;;;13.00;79.43;101102.66;5052514;28;20065;-82
2023/05/05 00:56:13;;;;;;;27.38;12.75;;;;;;;12.83;80.12;101114.00;5051872;28;20415;-84
2023/05/05 00:58:42;;;;;;;27.55;13.38;;;;;;;12.87;81.01;101118.16;5051436;28;20032;-84
2023/05/05 01:01:09;;;;;;;29.42;11.93;;;;;;;12.83;81.08;101107.75;5051775;28;20021;-83
2023/05/05 01:03:37;;;;;;;29.98;12.98;;;;;;;12.89;81.53;101118.03;5051793;28;20061;-87
2023/05/05 01:06:18;;;;;;;29.73;13.57;;;;;;;12.93;81.30;101122.19;5051504;28;20025;-83
2023/05/05 01:09:16;;;;;;;28.38;14.43;;;;;;;12.86;81.38;101113.75;5051999;28;20488;-85
2023/05/05 01:11:55;;;;;;;33.38;14.15;;;;;;;12.88;81.76;101102.81;5048737;28;20083;-84
2023/05/05 01:14:34;;;;;;;26.17;12.02;;;;;;;12.80;81.95;101098.06;5049043;28;20037;-84
2023/05/05 01:17:09;;;;;;;28.10;12.57;;;;;;;12.96;81.69;101106.59;5048963;28;20048;-84
2023/05/05 01:19:49;;;;;;;30.10;12.40;;;;;;;12.91;80.78;101108.81;5048457;28;20178;-83
2023/05/05 01:22:21;;;;;;;25.92;12.98;;;;;;;12.77;80.42;101081.25;5048915;28;20039;-84
2023/05/05 01:24:56;;;;;;;22.08;12.63;;;;;;;12.81;80.46;101098.94;5049466;28;20032;-83
2023/05/05 01:27:54;;;;;;;32.88;14.40;;;;;;;12.63;80.79;101079.69;5050056;28;20093;-83
2023/05/05 01:30:48;;;;;;;34.88;14.65;;;;;;;12.67;80.97;101093.78;5052600;28;20116;-84
2023/05/05 01:33:22;;;;;;;39.53;14.63;;;;;;;12.61;80.89;101078.97;5051807;28;20067;-83
2023/05/05 01:35:54;;;;;;;28.88;13.45;;;;;;;12.47;80.69;101084.66;5060312;28;20100;-82
2023/05/05 01:38:31;;;;;;;23.80;13.90;;;;;;;12.40;80.48;101080.75;5057132;28;20049;-83
2023/05/05 01:41:02;;;;;;;19.65;13.23;;;;;;;12.24;81.53;101077.56;5048856;28;20041;-83
2023/05/05 01:43:31;;;;;;;31.77;14.55;;;;;;;12.14;81.25;101045.09;5048525;28;20618;-83
2023/05/05 01:45:58;;;;;;;28.38;15.30;;;;;;;12.19;82.01;101051.00;5048895;28;20539;-84
2023/05/05 01:48:25;;;;;;;24.17;14.38;;;;;;;12.31;82.28;101068.00;5049995;28;20050;-84
2023/05/05 01:50:52;;;;;;;25.70;13.90;;;;;;;12.31;82.57;101059.91;5051344;28;20033;-85
2023/05/05 01:53:21;;;;;;;38.10;14.18;;;;;;;12.35;82.48;101061.41;5050770;28;20041;-83
2023/05/05 01:55:49;;;;;;;34.72;14.15;;;;;;;12.45;82.36;101079.38;5050765;28;20017;-84
2023/05/05 01:58:17;;;;;;;32.53;13.63;;;;;;;12.28;82.43;101073.66;5050504;28;20518;-84
2023/05/05 02:00:43;;;;;;;25.95;13.70;;;;;;;12.28;82.95;101074.50;5051245;28;20116;-83
2023/05/05 02:03:12;;;;;;;27.10;13.75;;;;;;;12.18;83.30;101053.78;5049696;28;20036;-83
2023/05/05 02:05:39;;;;;;;32.95;13.80;;;;;;;12.21;83.60;101045.47;5050828;28;20029;-82
2023/05/05 02:08:07;;;;;;;25.27;14.07;;;;;;;12.48;83.31;101076.44;5051088;28;20103;-85
2023/05/05 02:10:33;;;;;;;29.85;13.02;;;;;;;12.35;83.38;101050.59;5051051;28;20031;-83
2023/05/05 02:13:01;;;;;;;31.73;15.27;;;;;;;12.49;83.63;101059.28;5050779;28;20017;-83
2023/05/05 02:15:28;;;;;;;42.53;14.15;;;;;;;12.61;83.17;101070.88;5050171;28;20033;-85
2023/05/05 02:17:55;;;;;;;25.17;12.77;;;;;;;12.57;83.23;101054.09;5048664;28;20040;-85
2023/05/05 02:20:22;;;;;;;46.72;14.27;;;;;;;12.58;82.85;101044.16;5051171;28;20512;-87
2023/05/05 02:22:48;;;;;;;52.53;13.55;;;;;;;12.77;83.17;101065.94;5051344;28;20025;-83
2023/05/05 02:25:16;;;;;;;40.47;13.52;;;;;;;12.79;82.60;101061.25;5051667;28;20033;-84
2023/05/05 02:27:44;;;;;;;27.33;13.18;;;;;;;12.80;82.64;101072.91;5051092;28;20450;-85
2023/05/05 02:30:13;;;;;;;36.20;14.65;;;;;;;12.72;82.62;101062.75;5053098;28;20052;-85
2023/05/05 02:32:41;;;;;;;26.88;14.13;;;;;;;12.76;82.12;101076.84;5063617;28;20037;-84
2023/05/05 02:35:13;;;;;;;34.35;15.05;;;;;;;12.75;82.11;101075.97;5063601;28;20484;-83
2023/05/05 02:37:42;;;;;;;33.15;14.50;;;;;;;12.54;82.17;101029.19;5054544;28;20053;-83
2023/05/05 02:40:10;;;;;;;112.68;22.27;;;;;;;12.69;81.58;101054.91;5055220;28;20120;-83
2023/05/05 02:42:39;;;;;;;33.40;14.88;;;;;;;12.66;80.83;101065.94;5053932;28;20116;-85
2023/05/05 02:45:14;;;;;;;34.15;13.25;;;;;;;12.48;80.83;101051.28;5055385;28;20484;-82
2023/05/05 02:47:39;;;;;;;46.65;16.20;;;;;;;12.39;81.29;101035.84;5055804;28;20033;-82
2023/05/05 02:50:07;;;;;;;26.70;13.95;;;;;;;12.62;81.37;101082.53;5055389;28;20094;-83
2023/05/05 02:52:33;;;;;;;33.22;14.85;;;;;;;12.48;81.15;101078.25;5054781;28;20040;-84
2023/05/05 02:55:00;;;;;;;22.58;13.65;;;;;;;12.36;81.47;101073.88;5054739;28;20108;-84
2023/05/05 02:57:33;;;;;;;18.20;11.93;;;;;;;12.30;81.68;101072.53;5055165;28;20059;-87
2023/05/05 03:00:09;;;;;;;28.42;13.65;;;;;;;12.12;82.92;101046.22;5055190;28;20029;-85
2023/05/05 03:02:56;;;;;;;19.73;12.02;;;;;;;12.30;82.84;101083.31;5053983;28;20407;-86
2023/05/05 03:05:27;;;;;;;20.98;11.30;;;;;;;12.27;83.33;101080.03;5054401;28;20029;-85
2023/05/05 03:08:08;;;;;;;25.27;12.98;;;;;;;12.16;83.50;101061.16;5054240;28;20021;-83
2023/05/05 03:10:42;;;;;;;30.27;12.70;;;;;;;12.22;83.95;101074.16;5053768;28;20029;-83
2023/05/05 03:13:10;;;;;;;27.50;11.73;;;;;;;12.30;83.88;101085.16;5054024;28;20055;-84
2023/05/05 03:15:45;;;;;;;33.10;13.95;;;;;;;12.26;83.57;101078.31;5062656;28;20064;-84
2023/05/05 03:18:14;;;;;;;23.20;11.40;;;;;;;12.26;83.31;101089.94;5074006;28;20028;-85
2023/05/05 03:20:40;;;;;;;31.60;14.93;;;;;;;11.96;83.36;101043.88;5074402;28;20438;-83
2023/05/05 03:23:09;;;;;;;31.80;13.93;;;;;;;11.98;83.48;101059.00;5072642;28;20048;-81
2023/05/05 03:25:47;;;;;;;25.58;11.40;;;;;;;12.28;83.97;101104.19;5074642;28;20033;-85
2023/05/05 03:28:14;;;;;;;26.65;12.57;;;;;;;12.28;83.92;101100.63;5083168;28;20029;-87
2023/05/05 03:30:40;;;;;;;30.13;11.68;;;;;;;12.30;83.69;101106.75;5082135;28;20039;-83
2023/05/05 03:33:10;;;;;;;24.15;12.07;;;;;;;12.24;83.69;101091.91;5075843;28;20032;-85
2023/05/05 03:35:35;;;;;;;34.95;12.45;;;;;;;12.15;83.11;101081.00;5075097;28;20036;-87
2023/05/05 03:38:01;;;;;;;36.35;18.88;;;;;;;12.35;83.09;101099.16;5074160;28;20052;-82
2023/05/05 03:40:26;;;;;;;22.95;11.55;;;;;;;12.15;83.38;101075.63;5072940;28;20024;-81
2023/05/05 03:42:52;;;;;;;20.50;10.35;;;;;;;12.31;83.08;101103.06;5076194;28;20035;-87
2023/05/05 03:45:17;;;;;;;20.90;10.40;;;;;;;12.37;82.83;101107.97;5080725;28;20048;-84
2023/05/05 03:47:43;;;;;;;17.52;10.57;;;;;;;12.19;82.92;101059.09;5080227;28;20024;-90
2023/05/05 03:50:08;;;;;;;32.33;17.50;;;;;;;12.22;82.41;101076.84;5084475;28;20024;-88
2023/05/05 03:52:34;;;;;;;34.45;11.50;;;;;;;12.27;83.34;101077.31;5083396;28;20021;-85
2023/05/05 03:55:00;;;;;;;19.42;11.40;;;;;;;12.35;83.14;101081.09;5078477;28;20099;-84
2023/05/05 03:57:25;;;;;;;18.33;9.75;;;;;;;12.43;82.14;101096.69;5074997;28;20028;-89
2023/05/05 03:59:51;;;;;;;24.02;9.82;;;;;;;12.39;82.38;101089.81;5074405;28;20028;-87
2023/05/05 04:02:17;;;;;;;23.70;11.20;;;;;;;12.62;82.36;101114.91;5075570;28;20073;-89
2023/05/05 04:04:42;;;;;;;36.15;15.27;;;;;;;12.65;81.53;101098.47;5071083;28;20033;-84
2023/05/05 04:07:08;;;;;;;20.67;11.45;;;;;;;12.62;81.15;101086.09;5072870;28;20030;-79
2023/05/05 04:09:33;;;;;;;28.30;12.00;;;;;;;12.78;81.33;101100.00;5072579;28;20056;-82
2023/05/05 04:11:59;;;;;;;20.27;11.38;;;;;;;12.94;80.87;101124.75;5073469;28;20028;-88
2023/05/05 04:14:25;;;;;;;23.17;10.80;;;;;;;12.96;79.96;101114.72;5075613;28;20107;-80
2023/05/05 04:16:50;;;;;;;29.73;12.73;;;;;;;12.87;79.79;101101.94;5076819;28;20036;-81
2023/05/05 04:19:16;;;;;;;15.13;8.85;;;;;;;12.94;80.06;101105.84;5078616;28;20028;-81
2023/05/05 04:21:41;;;;;;;19.58;9.85;;;;;;;13.12;79.43;101116.16;5077935;28;20037;-86
2023/05/05 04:24:07;;;;;;;14.77;10.00;;;;;;;13.04;78.96;101098.72;5108449;28;20043;-84
2023/05/05 04:26:33;;;;;;;14.73;8.25;;;;;;;13.03;78.37;101093.41;5093858;28;20089;-84
2023/05/05 04:28:58;;;;;;;26.85;9.38;;;;;;;13.16;78.36;101101.38;5086927;28;20032;-86
2023/05/05 04:31:24;;;;;;;21.10;10.20;;;;;;;12.94;78.56;101083.41;5090711;28;20134;-85
2023/05/05 04:33:49;;;;;;;27.67;9.65;;;;;;;13.15;78.60;101102.41;5087309;28;20414;-85
2023/05/05 04:36:14;;;;;;;14.10;7.45;;;;;;;13.13;78.18;101101.66;5088332;28;20436;-85
2023/05/05 04:38:40;;;;;;;15.50;9.23;;;;;;;13.11;77.72;101099.09;5038029;28;20039;-88
2023/05/05 04:41:05;;;;;;;29.23;9.10;;;;;;;12.96;78.03;101068.81;5072332;28;20074;-82
2023/05/05 04:43:31;;;;;;;20.23;8.05;;;;;;;13.11;78.02;101072.09;5091453;28;20047;-89
2023/05/05 04:45:56;;;;;;;32.60;10.00;;;;;;;13.25;77.51;101084.41;5072689;28;20429;-83
2023/05/05 04:48:22;;;;;;;22.40;8.52;;;;;;;13.39;77.43;101105.72;5090762;28;20809;-88
2023/05/05 04:50:47;;;;;;;27.42;8.52;;;;;;;13.41;77.09;101084.81;5073934;28;20114;-89
2023/05/05 04:53:13;;;;;;;14.52;7.13;;;;;;;13.48;76.90;101083.31;5079056;28;20063;-89
2023/05/05 04:55:38;;;;;;;15.45;7.82;;;;;;;13.58;76.29;101081.50;5092486;28;20053;-88
2023/05/05 04:58:04;;;;;;;35.38;7.28;;;;;;;13.65;76.01;101093.50;5075944;28;20385;-80
2023/05/05 05:00:29;;;;;;;30.45;11.93;;;;;;;13.71;75.79;101101.06;5070474;28;20032;-84
2023/05/05 05:02:55;;;;;;;38.78;8.80;;;;;;;13.66;75.55;101081.72;5071012;28;20455;-85
2023/05/05 05:05:21;;;;;;;34.08;6.55;;;;;;;13.77;75.38;101089.72;5072687;28;20705;-87
2023/05/05 05:07:47;;;;;;;13.63;6.80;;;;;;;13.88;74.77;101097.75;5073585;28;20032;-88
2023/05/05 05:10:12;;;;;;;12.32;5.43;;;;;;;13.80;74.91;101085.88;5072036;28;20037;-89
2023/05/05 05:12:38;;;;;;;17.95;5.93;;;;;;;13.86;74.50;101088.06;5072235;28;20094;-88
2023/05/05 05:15:04;;;;;;;12.77;6.03;;;;;;;13.87;74.40;101079.81;5074459;28;20493;-88
2023/05/05 05:17:29;;;;;;;15.02;6.63;;;;;;;13.99;74.67;101092.25;5075117;28;20109;-86
2023/05/05 05:19:55;;;;;;;13.32;5.55;;;;;;;14.05;74.05;101096.28;5078198;28;20020;-88
2023/05/05 05:22:21;;;;;;;28.17;6.30;;;;;;;14.07;74.29;101103.25;5095066;28;20023;-87
2023/05/05 05:24:47;;;;;;;15.85;5.72;;;;;;;14.03;73.98;101098.25;5092407;28;20092;-88
2023/05/05 05:27:12;;;;;;;24.98;6.43;;;;;;;14.14;74.03;101104.44;5069672;28;20048;-87
2023/05/05 05:29:38;;;;;;;16.40;6.90;;;;;;;14.16;74.02;101097.03;5068431;28;20048;-86
2023/05/05 05:32:03;;;;;;;14.35;6.25;;;;;;;14.09;74.01;101076.94;5068945;28;20041;-87
2023/05/05 05:34:29;;;;;;;81.03;10.50;;;;;;;14.31;74.35;101096.66;5068882;28;20052;-89
2023/05/05 05:36:54;;;;;;;23.35;5.65;;;;;;;14.54;73.90;101119.84;5067595;28;20127;-85
2023/05/05 05:39:20;;;;;;;134.15;14.32;;;;;;;14.71;73.29;101111.03;5049787;28;20028;-82
2023/05/05 05:41:46;;;;;;;15.70;5.90;;;;;;;14.87;72.51;101110.50;5066983;28;20043;-84
2023/05/05 05:44:12;;;;;;;16.30;6.80;;;;;;;15.01;70.78;101112.81;5067211;28;20057;-85
2023/05/05 05:46:38;;;;;;;15.38;5.60;;;;;;;15.11;70.21;101113.66;5066343;28;20043;-89
2023/05/05 05:49:03;;;;;;;24.48;5.45;;;;;;;15.05;70.19;101108.78;5067118;28;20028;-88
2023/05/05 05:51:29;;;;;;;16.85;5.97;;;;;;;15.15;70.45;101105.09;5066261;28;20028;-84
2023/05/05 05:53:54;;;;;;;32.42;6.63;;;;;;;15.35;70.69;101118.66;5050625;28;20048;-83
2023/05/05 05:56:20;;;;;;;20.48;4.47;;;;;;;15.52;68.82;101124.25;5067447;28;20024;-86
2023/05/05 05:58:47;;;;;;;14.75;5.03;;;;;;;15.52;69.03;101117.94;5062355;28;20055;-86
2023/05/05 06:01:13;;;;;;;18.02;5.95;;;;;;;15.68;68.66;101120.94;5068811;28;20102;-85
2023/05/05 06:03:38;;;;;;;24.63;8.23;;;;;;;15.86;68.36;101119.19;5069744;28;20052;-87
2023/05/05 06:06:04;;;;;;;53.53;10.70;;;;;;;15.99;67.27;101108.84;5069263;28;20025;-86
2023/05/05 06:08:30;;;;;;;29.33;8.70;;;;;;;16.24;66.28;101105.47;5069470;28;20146;-86
2023/05/05 06:10:55;;;;;;;17.48;6.53;;;;;;;16.55;65.40;101118.78;5070065;28;20029;-86
2023/05/05 06:13:21;;;;;;;34.65;9.55;;;;;;;16.53;64.72;101104.47;5071329;28;20596;-84
2023/05/05 06:15:46;;;;;;;21.30;6.72;;;;;;;16.63;64.41;101111.59;5071623;28;20051;-88
2023/05/05 06:18:12;;;;;;;22.30;8.00;;;;;;;16.77;63.88;101118.38;5082451;28;20067;-87
2023/05/05 06:20:37;;;;;;;24.33;6.72;;;;;;;16.85;63.06;101110.28;5083877;28;20476;-81
2023/05/05 06:23:02;;;;;;;19.55;9.13;;;;;;;16.92;63.41;101116.84;5070042;28;20423;-89
2023/05/05 06:25:28;;;;;;;30.83;7.70;;;;;;;17.03;62.90;101124.75;5069184;28;20033;-87
2023/05/05 06:27:53;;;;;;;40.40;7.53;;;;;;;17.16;62.72;101122.50;5073524;28;20024;-87
2023/05/05 06:30:19;;;;;;;15.50;5.28;;;;;;;17.27;62.48;101122.31;5070746;28;20109;-88
2023/05/05 06:32:44;;;;;;;50.05;9.98;;;;;;;17.35;62.11;101122.38;5070158;28;20095;-88
2023/05/05 06:35:10;;;;;;;28.92;6.82;;;;;;;17.22;61.17;101130.03;5068374;28;20037;-87
2023/05/05 06:37:35;;;;;;;29.80;9.38;;;;;;;17.24;61.25;101133.50;5069721;28;20048;-88
2023/05/05 06:40:01;;;;;;;50.15;7.45;;;;;;;17.25;61.12;101134.31;5074422;28;20060;-90
2023/05/05 06:42:26;;;;;;;45.72;11.85;;;;;;;17.26;61.93;101131.47;5076374;28;20044;-86
2023/05/05 06:44:52;;;;;;;24.05;4.93;;;;;;;17.33;60.93;101138.00;5078196;28;20029;-88
2023/05/05 06:47:17;;;;;;;55.63;9.07;;;;;;;17.28;61.21;101118.56;5069728;28;20568;-88
2023/05/05 06:49:43;;;;;;;29.80;8.73;;;;;;;17.56;61.42;101126.63;5069679;28;20676;-89
2023/05/05 06:52:08;;;;;;;29.38;7.78;;;;;;;17.63;61.10;101123.13;5069268;28;20035;-90
2023/05/05 06:54:34;;;;;;;45.50;11.13;;;;;;;17.62;59.95;101126.00;5070171;28;20562;-87
2023/05/05 06:56:59;;;;;;;30.35;10.82;;;;;;;17.63;60.10;101122.28;5083296;28;20036;-87
2023/05/05 06:59:25;;;;;;;24.58;8.48;;;;;;;17.74;59.53;101131.03;5070152;28;20029;-88
2023/05/05 07:01:51;;;;;;;43.58;13.20;;;;;;;17.72;58.89;101141.22;5068954;28;20508;-88
2023/05/05 07:04:16;;;;;;;56.92;16.27;;;;;;;17.56;58.95;101132.94;5069943;28;20035;-90
2023/05/05 07:06:41;;;;;;;58.95;17.55;;;;;;;17.58;59.50;101147.25;5071403;28;20050;-90
2023/05/05 07:09:07;;;;;;;46.67;11.82;;;;;;;17.51;59.81;101146.13;5072618;28;20056;-90
2023/05/05 07:11:32;;;;;;;30.05;7.05;;;;;;;17.30;60.29;101132.88;5074977;28;20138;-88
2023/05/05 07:13:58;;;;;;;112.03;16.30;;;;;;;17.47;60.49;101138.44;5093004;28;20025;-85
2023/05/05 07:16:25;;;;;;;25.35;6.57;;;;;;;17.60;59.75;101144.34;5093169;28;20034;-86
2023/05/05 07:18:51;;;;;;;35.17;6.95;;;;;;;17.62;59.04;101135.03;5076765;28;20115;-89
2023/05/05 07:21:16;;;;;;;58.67;11.18;;;;;;;17.58;59.08;101130.06;5074436;28;20107;-87
2023/05/05 07:23:42;;;;;;;131.68;15.77;;;;;;;17.64;59.54;101151.22;5075609;28;20025;-89
2023/05/05 07:26:07;;;;;;;82.20;11.93;;;;;;;17.88;58.64;101154.97;5056809;28;20041;-87
2023/05/05 07:28:33;;;;;;;37.40;7.25;;;;;;;17.75;58.50;101142.78;5075892;28;20502;-89
2023/05/05 07:30:59;;;;;;;18.10;5.88;;;;;;;17.91;57.99;101151.06;5074239;28;20028;-90
2023/05/05 07:33:24;;;;;;;15.05;5.63;;;;;;;17.88;58.45;101154.13;5074204;28;20090;-89
2023/05/05 07:35:50;;;;;;;26.75;5.90;;;;;;;17.91;58.21;101153.78;5073431;28;20013;-89
2023/05/05 07:38:15;;;;;;;37.28;8.05;;;;;;;17.54;60.02;101150.41;5082232;28;20469;-91
2023/05/05 07:40:41;;;;;;;21.80;6.88;;;;;;;17.65;60.46;101161.06;5093419;28;20062;-88
2023/05/05 07:43:06;;;;;;;21.75;5.75;;;;;;;17.34;60.77;101160.56;5093467;28;20033;-87
2023/05/05 07:45:32;;;;;;;24.63;7.07;;;;;;;17.38;61.19;101162.84;5095195;28;20031;-87
2023/05/05 07:47:58;;;;;;;30.98;5.88;;;;;;;17.45;61.10;101152.19;5092865;28;20100;-86
2023/05/05 07:50:24;;;;;;;28.67;5.68;;;;;;;17.55;60.74;101154.88;5092937;28;20035;-86
2023/05/05 07:52:49;;;;;;;21.92;5.50;;;;;;;17.58;60.02;101157.28;5095169;28;20074;-87
2023/05/05 07:55:15;;;;;;;13.18;5.63;;;;;;;17.52;59.69;101164.13;5094535;28;20048;-88
2023/05/05 07:57:40;;;;;;;20.15;5.95;;;;;;;17.45;59.89;101164.94;5094395;28;20025;-88
2023/05/05 08:00:06;;;;;;;24.25;6.00;;;;;;;17.51;60.25;101164.31;5094761;28;20032;-88
2023/05/05 08:02:32;;;;;;;17.83;4.97;;;;;;;17.45;58.98;101163.06;5094137;28;20056;-89
2023/05/05 08:04:57;;;;;;;15.93;5.30;;;;;;;17.65;59.25;101147.44;5093878;28;20040;-85
2023/05/05 08:07:22;;;;;;;11.85;4.38;;;;;;;17.77;58.22;101152.50;5078640;28;20028;-88
2023/05/05 08:09:48;;;;;;;6.60;3.83;;;;;;;17.97;57.26;101158.59;5092253;28;20048;-88
2023/05/05 08:12:16;;;;;;;6.55;3.72;;;;;;;18.01;56.69;101157.25;5088962;28;20032;-88
2023/05/05 08:14:42;;;;;;;17.02;5.18;;;;;;;18.13;56.90;101158.72;5079811;28;20115;-88
2023/05/05 08:17:07;;;;;;;13.25;3.90;;;;;;;18.33;56.67;101160.19;5072587;28;20039;-90
2023/05/05 08:19:33;;;;;;;16.27;4.40;;;;;;;18.27;55.95;101158.09;5081561;28;20052;-90
2023/05/05 08:21:59;;;;;;;12.80;4.38;;;;;;;18.18;56.14;101156.34;5072632;28;20394;-88
2023/05/05 08:24:25;;;;;;;28.45;7.47;;;;;;;18.23;56.65;101164.88;5079252;28;20051;-89
2023/05/05 08:26:51;;;;;;;32.95;7.43;;;;;;;18.10;56.90;101153.59;5073535;28;20415;-88
2023/05/05 08:29:16;;;;;;;23.63;5.00;;;;;;;17.94;56.88;101154.34;5072046;28;20548;-88
2023/05/05 08:31:41;;;;;;;17.67;6.68;;;;;;;17.50;58.56;101140.84;5074156;28;20060;-88
2023/05/05 08:34:07;;;;;;;17.40;5.35;;;;;;;17.62;58.83;101153.22;5076377;28;20403;-88
2023/05/05 08:36:32;;;;;;;22.73;4.68;;;;;;;17.92;58.83;101150.03;5079687;28;20400;-90
2023/05/05 08:38:59;;;;;;;13.98;6.47;;;;;;;18.25;58.58;101143.81;5085469;28;20059;-86
2023/05/05 08:41:25;;;;;;;27.05;5.72;;;;;;;18.35;57.87;101136.34;5085577;28;20108;-88
2023/05/05 08:43:50;;;;;;;9.18;4.43;;;;;;;18.34;58.05;101140.13;5075012;28;20509;-89
2023/05/05 08:46:16;;;;;;;13.88;5.32;;;;;;;18.43;58.10;101149.19;5093959;28;20089;-87
2023/05/05 08:48:43;;;;;;;18.92;4.63;;;;;;;18.45;57.59;101156.16;5095485;28;20099;-87
2023/05/05 08:51:15;;;;;;;11.60;5.65;;;;;;;18.35;57.58;101130.91;5091737;28;20080;-89
2023/05/05 08:53:52;;;;;;;20.85;5.60;;;;;;;18.09;58.21;101145.56;5089702;28;20056;-90
2023/05/05 08:56:21;;;;;;;16.70;4.82;;;;;;;17.61;59.43;101118.88;5094434;28;20029;-87
2023/05/05 08:58:47;;;;;;;25.70;4.75;;;;;;;17.75;59.66;101134.63;5082310;28;20035;-91
2023/05/05 09:01:14;;;;;;;12.25;4.95;;;;;;;17.88;58.95;101121.47;5078401;28;20460;-90
2023/05/05 09:03:39;;;;;;;10.15;4.20;;;;;;;18.15;57.88;101129.44;5077948;28;20093;-89
2023/05/05 09:06:06;;;;;;;15.05;3.97;;;;;;;18.54;57.42;101123.53;5088538;28;20037;-87
2023/05/05 09:08:32;;;;;;;31.98;5.00;;;;;;;18.93;56.19;101106.47;5094834;28;20036;-87
2023/05/05 09:10:59;;;;;;;24.63;5.40;;;;;;;19.36;55.06;101118.09;5081390;28;20185;-89
2023/05/05 09:13:25;;;;;;;15.13;4.68;;;;;;;19.49;53.84;101111.16;5071192;28;20037;-88
2023/05/05 09:15:50;;;;;;;9.82;4.05;;;;;;;19.67;53.40;101101.94;5071171;28;20493;-89
2023/05/05 09:18:16;;;;;;;24.40;5.75;;;;;;;19.80;53.53;101114.03;5070926;28;20075;-88
2023/05/05 09:20:41;;;;;;;12.00;4.43;;;;;;;19.53;53.63;101112.53;5070387;28;20464;-82
2023/05/05 09:23:08;;;;;;;18.15;5.22;;;;;;;19.25;55.08;101108.38;5069880;28;20033;-82
2023/05/05 09:25:33;;;;;;;81.35;10.15;;;;;;;19.60;55.34;101106.38;5070095;28;20059;-84
2023/05/05 09:28:08;;;;;;;16.67;5.35;;;;;;;19.53;54.55;101107.06;5067977;28;20060;-83
2023/05/05 09:30:34;;;;;;;28.55;6.55;;;;;;;19.46;55.04;101106.03;5067908;28;20492;-83
2023/05/05 09:33:01;;;;;;;18.20;4.75;;;;;;;19.22;55.19;101113.31;5069805;28;20021;-83
2023/05/05 09:35:26;;;;;;;17.92;5.20;;;;;;;19.00;55.86;101103.91;5071674;28;20033;-84
2023/05/05 09:37:52;;;;;;;37.33;5.68;;;;;;;18.83;56.83;101107.63;5072188;28;20136;-86
2023/05/05 09:40:20;;;;;;;21.48;6.03;;;;;;;18.64;57.53;101081.53;5069918;28;20403;-86
2023/05/05 09:42:46;;;;;;;39.05;6.35;;;;;;;18.62;57.97;101082.72;5069825;28;20111;-84
2023/05/05 09:45:18;;;;;;;25.27;6.15;;;;;;;18.69;58.62;101109.13;5070832;28;20460;-81
2023/05/05 09:47:48;;;;;;;16.15;4.72;;;;;;;18.48;59.19;101095.91;5068935;28;20024;-87
2023/05/05 09:50:17;;;;;;;14.73;5.35;;;;;;;18.57;58.59;101096.81;5069510;28;20033;-82
2023/05/05 09:52:53;;;;;;;19.92;4.97;;;;;;;18.53;59.10;101111.78;5069898;28;20020;-81
2023/05/05 09:55:18;;;;;;;21.17;6.22;;;;;;;18.48;58.81;101098.63;5070716;28;20032;-84
2023/05/05 09:57:46;;;;;;;20.10;6.45;;;;;;;18.51;59.20;101108.38;5071696;28;20077;-83
2023/05/05 10:00:12;;;;;;;17.52;6.00;;;;;;;18.51;59.58;101107.50;5069571;28;20028;-84
2023/05/05 10:02:38;;;;;;;27.10;8.55;;;;;;;18.50;59.79;101103.94;5075530;28;20043;-84
2023/05/05 10:05:12;;;;;;;38.70;9.15;;;;;;;18.52;60.50;101084.72;5081281;28;20029;-82
2023/05/05 10:07:40;;;;;;;22.33;9.70;;;;;;;18.73;59.86;101074.22;5074316;28;20036;-85
2023/05/05 10:10:07;;;;;;;29.40;7.95;;;;;;;18.96;59.54;101102.53;5068181;28;20032;-82
2023/05/05 10:12:36;;;;;;;16.13;5.78;;;;;;;18.91;59.25;101099.47;5068485;28;20037;-81
2023/05/05 10:15:03;;;;;;;17.88;4.47;;;;;;;19.07;57.50;101074.97;5068225;28;20085;-83
2023/05/05 10:17:44;;;;;;;17.17;4.80;;;;;;;19.23;57.15;101088.63;5068846;28;20032;-82
2023/05/05 10:20:12;;;;;;;29.02;5.93;;;;;;;19.28;56.67;101060.81;5068781;28;20080;-81
2023/05/05 10:22:40;;;;;;;46.72;9.55;;;;;;;19.55;57.04;101087.78;5068545;28;20039;-82
2023/05/05 10:25:12;;;;;;;34.60;7.50;;;;;;;19.60;56.48;101095.47;5068596;28;20036;-82
2023/05/05 10:27:48;;;;;;;24.88;6.03;;;;;;;19.68;56.41;101081.81;5066687;28;20499;-87
2023/05/05 10:30:30;;;;;;;27.33;6.35;;;;;;;19.66;55.97;101078.41;5068691;28;20036;-84
2023/05/05 10:33:20;;;;;;;17.17;4.70;;;;;;;20.14;54.55;101086.50;5068481;28;20491;-80
2023/05/05 10:35:51;;;;;;;14.32;5.18;;;;;;;20.06;54.24;101075.56;5068804;28;20267;-82
2023/05/05 10:38:18;;;;;;;15.60;4.25;;;;;;;19.84;54.12;101079.06;5068285;28;20040;-79
2023/05/05 10:40:44;;;;;;;6.65;3.65;;;;;;;19.55;54.99;101072.28;5068444;28;20024;-81
2023/05/05 10:43:11;;;;;;;17.90;4.88;;;;;;;19.60;55.38;101063.56;5068787;28;20029;-84
2023/05/05 10:45:38;;;;;;;9.77;4.50;;;;;;;19.78;54.88;101061.50;5068276;28;20025;-83
2023/05/05 10:48:08;;;;;;;16.30;4.97;;;;;;;19.76;54.77;101060.81;5066783;28;20032;-82
2023/05/05 10:50:43;;;;;;;12.93;3.50;;;;;;;19.42;55.06;101060.16;5067992;28;20032;-81
2023/05/05 10:53:20;;;;;;;39.75;7.45;;;;;;;19.52;54.58;101037.16;5071672;28;20085;-81
2023/05/05 10:56:01;;;;;;;12.13;4.13;;;;;;;19.68;54.66;101060.84;5074418;28;20024;-81
2023/05/05 10:58:42;;;;;;;14.73;4.22;;;;;;;19.84;52.30;101043.56;5072851;28;20040;-79
2023/05/05 11:01:08;;;;;;;10.82;4.25;;;;;;;19.74;52.73;101054.69;5075972;28;20528;-83
2023/05/05 11:03:34;;;;;;;17.58;5.40;;;;;;;19.77;53.01;101064.41;5075160;28;20089;-81
2023/05/05 11:06:02;;;;;;;24.45;4.82;;;;;;;19.83;53.74;101058.25;5072516;28;20475;-81
2023/05/05 11:08:43;;;;;;;13.38;3.90;;;;;;;19.87;53.11;101054.16;5070687;28;20032;-82
2023/05/05 11:11:10;;;;;;;19.38;4.97;;;;;;;19.94;53.10;101041.47;5072203;28;20024;-84
2023/05/05 11:13:37;;;;;;;17.27;4.10;;;;;;;20.03;53.41;101049.47;5072304;28;20074;-84
2023/05/05 11:16:04;;;;;;;9.35;3.65;;;;;;;20.26;52.62;101033.22;5072359;28;20453;-84